createdAt,value
2023-03-15T00:01:52.120Z,8.49
2023-03-15T00:04:25.296Z,8.22
2023-03-15T00:06:57.008Z,8.06
2023-03-15T00:09:29.049Z,7.80
2023-03-15T00:12:02.153Z,7.69
2023-03-15T00:14:33.590Z,7.51
2023-03-15T00:17:05.067Z,7.33
2023-03-15T00:19:36.466Z,7.16
2023-03-15T00:22:08.668Z,7.07
2023-03-15T00:24:40.105Z,7.00
2023-03-15T00:27:12.706Z,6.85
2023-03-15T00:29:44.376Z,6.71
2023-03-15T00:32:16.007Z,6.57
2023-03-15T00:34:49.444Z,6.45
2023-03-15T00:37:25.913Z,6.50
2023-03-15T00:39:57.607Z,6.50
2023-03-15T00:42:30.598Z,6.42
2023-03-15T00:45:02.550Z,6.33
2023-03-15T00:47:34.513Z,6.42
2023-03-15T00:50:06.394Z,6.38
2023-03-15T00:52:39.497Z,6.23
2023-03-15T00:55:14.774Z,6.16
2023-03-15T00:57:47.745Z,6.10
2023-03-15T01:00:24.813Z,5.98
2023-03-15T01:02:59.033Z,5.88
2023-03-15T01:05:31.526Z,5.96
2023-03-15T01:08:03.427Z,5.88
2023-03-15T01:10:36.124Z,5.72
2023-03-15T01:13:07.730Z,5.68
2023-03-15T01:15:39.436Z,5.64
2023-03-15T01:18:10.861Z,5.69
2023-03-15T01:20:46.632Z,5.76
2023-03-15T01:23:18.187Z,5.67
2023-03-15T01:25:49.756Z,5.67
2023-03-15T01:28:21.275Z,5.72
2023-03-15T01:30:57.544Z,5.68
2023-03-15T01:33:30.531Z,5.59
2023-03-15T01:36:07.609Z,5.57
2023-03-15T01:38:39.199Z,5.72
2023-03-15T01:41:11.277Z,5.69
2023-03-15T01:43:47.687Z,5.48
2023-03-15T01:46:34.901Z,5.41
2023-03-15T01:49:12.713Z,5.43
2023-03-15T01:51:47.602Z,5.50
2023-03-15T01:54:26.168Z,5.61
2023-03-15T01:57:01.692Z,5.52
2023-03-15T01:59:37.544Z,5.39
2023-03-15T02:02:09.936Z,5.35
2023-03-15T02:04:47.530Z,5.32
2023-03-15T02:07:21.931Z,5.31
2023-03-15T02:10:01.673Z,5.24
2023-03-15T02:12:36.666Z,5.33
2023-03-15T02:15:11.953Z,5.41
2023-03-15T02:17:45.863Z,5.35
2023-03-15T02:20:27.613Z,5.26
2023-03-15T02:23:01.741Z,5.13
2023-03-15T02:25:45.435Z,5.23
2023-03-15T02:28:19.543Z,5.21
2023-03-15T02:30:52.217Z,5.24
2023-03-15T02:33:27.640Z,5.22
2023-03-15T02:36:08.667Z,5.20
2023-03-15T02:38:40.276Z,5.21
2023-03-15T02:41:12.212Z,5.11
2023-03-15T02:43:44.777Z,5.10
2023-03-15T02:46:16.796Z,5.03
2023-03-15T02:48:49.510Z,4.96
2023-03-15T02:51:26.323Z,4.96
2023-03-15T02:53:57.986Z,4.92
2023-03-15T02:56:29.586Z,5.01
2023-03-15T02:59:01.123Z,5.05
2023-03-15T03:01:32.946Z,4.94
2023-03-15T03:04:05.157Z,4.94
2023-03-15T03:06:36.709Z,4.97
2023-03-15T03:09:08.525Z,5.01
2023-03-15T03:11:40.424Z,5.00
2023-03-15T03:14:14.336Z,4.94
2023-03-15T03:16:45.980Z,4.91
2023-03-15T03:19:17.636Z,4.85
2023-03-15T03:21:49.409Z,4.75
2023-03-15T03:24:21.484Z,4.92
2023-03-15T03:26:58.121Z,4.99
2023-03-15T03:29:29.950Z,4.93
2023-03-15T03:32:01.951Z,4.82
2023-03-15T03:34:33.699Z,4.75
2023-03-15T03:37:05.327Z,4.76
2023-03-15T03:39:36.770Z,4.77
2023-03-15T03:42:08.970Z,4.75
2023-03-15T03:44:40.440Z,4.80
2023-03-15T03:47:12.543Z,4.93
2023-03-15T03:49:44.084Z,4.90
2023-03-15T03:52:16.085Z,4.83
2023-03-15T03:54:47.429Z,4.88
2023-03-15T03:57:19.006Z,4.84
2023-03-15T03:59:50.980Z,4.76
2023-03-15T04:02:22.727Z,4.76
2023-03-15T04:04:54.906Z,4.70
2023-03-15T04:07:26.477Z,4.69
2023-03-15T04:09:57.954Z,4.74
2023-03-15T04:12:29.546Z,4.72
2023-03-15T04:15:01.145Z,4.72
2023-03-15T04:17:32.855Z,4.83
2023-03-15T04:20:07.259Z,4.84
2023-03-15T04:22:38.835Z,4.87
2023-03-15T04:25:11.800Z,4.91
2023-03-15T04:35:18.092Z,5.02
2023-03-15T04:37:50.542Z,5.02
2023-03-15T04:40:24.416Z,4.83
2023-03-15T04:42:57.400Z,4.64
2023-03-15T04:45:30.208Z,4.48
2023-03-15T04:48:03.101Z,4.43
2023-03-15T04:50:34.813Z,4.45
2023-03-15T04:53:06.511Z,4.51
2023-03-15T04:55:38.326Z,4.44
2023-03-15T04:58:11.601Z,4.42
2023-03-15T05:00:43.169Z,4.43
2023-03-15T05:03:16.499Z,4.42
2023-03-15T05:05:48.364Z,4.54
2023-03-15T05:08:20.030Z,4.55
2023-03-15T05:10:52.268Z,4.47
2023-03-15T05:13:23.842Z,4.38
2023-03-15T05:15:55.659Z,4.42
2023-03-15T05:18:27.487Z,4.44
2023-03-15T05:20:59.055Z,4.45
2023-03-15T05:23:30.789Z,4.39
2023-03-15T05:26:02.390Z,4.37
2023-03-15T05:28:34.014Z,4.30
2023-03-15T05:31:05.670Z,4.28
2023-03-15T05:33:37.242Z,4.23
2023-03-15T05:36:09.431Z,4.23
2023-03-15T05:38:43.998Z,4.23
2023-03-15T05:41:18.384Z,4.28
2023-03-15T05:43:50.122Z,4.34
2023-03-15T05:46:23.107Z,4.32
2023-03-15T05:48:55.181Z,4.27
2023-03-15T05:51:26.860Z,4.23
2023-03-15T05:53:59.555Z,4.26
2023-03-15T05:56:31.124Z,4.21
2023-03-15T05:59:04.946Z,4.17
2023-03-15T06:01:36.532Z,4.14
2023-03-15T06:04:08.765Z,4.19
2023-03-15T06:06:40.238Z,4.29
2023-03-15T06:09:11.718Z,4.32
2023-03-15T06:11:43.645Z,4.28
2023-03-15T06:14:15.190Z,4.28
2023-03-15T06:16:46.788Z,4.29
2023-03-15T06:19:18.487Z,4.29
2023-03-15T06:21:50.933Z,4.21
2023-03-15T06:24:22.526Z,4.10
2023-03-15T06:26:55.153Z,4.12
2023-03-15T06:29:26.942Z,4.21
2023-03-15T06:31:59.921Z,4.20
2023-03-15T06:34:31.428Z,4.24
2023-03-15T06:37:03.633Z,4.27
2023-03-15T06:39:38.818Z,4.19
2023-03-15T06:42:13.320Z,4.10
2023-03-15T06:44:46.279Z,4.14
2023-03-15T06:47:17.930Z,4.19
2023-03-15T06:49:51.468Z,4.19
2023-03-15T06:52:26.301Z,4.21
2023-03-15T06:54:56.139Z,4.30
2023-03-15T06:57:27.774Z,4.28
2023-03-15T06:59:59.299Z,4.22
2023-03-15T07:02:37.321Z,4.29
2023-03-15T07:05:10.305Z,4.43
2023-03-15T07:07:42.217Z,4.48
2023-03-15T07:10:14.976Z,4.52
2023-03-15T07:12:46.545Z,4.57
2023-03-15T07:15:18.572Z,4.75
2023-03-15T07:17:50.169Z,4.75
2023-03-15T07:20:22.043Z,4.70
2023-03-15T07:22:53.473Z,4.65
2023-03-15T07:25:26.301Z,4.71
2023-03-15T07:27:58.055Z,4.77
2023-03-15T07:30:29.747Z,4.73
2023-03-15T07:33:01.579Z,4.68
2023-03-15T07:35:33.362Z,4.76
2023-03-15T07:38:05.007Z,4.74
2023-03-15T07:40:36.306Z,4.75
2023-03-15T07:43:08.005Z,4.73
2023-03-15T07:45:39.635Z,4.70
2023-03-15T07:48:11.683Z,4.78
2023-03-15T07:50:43.690Z,4.69
2023-03-15T07:53:15.411Z,4.72
2023-03-15T07:55:48.830Z,4.76
2023-03-15T07:58:20.702Z,4.90
2023-03-15T08:00:52.337Z,4.91
2023-03-15T08:03:24.545Z,5.06
2023-03-15T08:05:57.004Z,5.11
2023-03-15T08:08:28.840Z,5.05
2023-03-15T08:11:00.835Z,5.00
2023-03-15T08:13:32.695Z,5.00
2023-03-15T08:16:04.326Z,5.04
2023-03-15T08:18:38.018Z,5.12
2023-03-15T08:21:09.846Z,5.18
2023-03-15T08:23:42.002Z,5.24
2023-03-15T08:26:13.555Z,5.20
2023-03-15T08:28:51.970Z,5.14
2023-03-15T08:31:23.750Z,5.11
2023-03-15T08:33:55.776Z,5.12
2023-03-15T08:36:27.787Z,5.20
2023-03-15T08:38:59.355Z,5.24
2023-03-15T08:41:31.163Z,5.32
2023-03-15T08:44:03.261Z,5.42
2023-03-15T08:46:35.340Z,5.31
2023-03-15T08:49:07.285Z,5.40
2023-03-15T08:51:41.061Z,5.49
2023-03-15T08:54:14.090Z,5.52
2023-03-15T08:56:46.259Z,5.62
2023-03-15T08:59:29.003Z,5.56
2023-03-15T09:02:04.118Z,5.61
2023-03-15T09:04:38.193Z,5.81
2023-03-15T09:07:10.220Z,5.90
2023-03-15T09:09:42.077Z,6.03
2023-03-15T09:12:14.667Z,6.11
2023-03-15T09:17:40.053Z,6.38
2023-03-15T09:20:15.116Z,6.50
2023-03-15T09:22:54.485Z,6.61
2023-03-15T09:25:27.800Z,6.53
2023-03-15T09:27:59.845Z,6.44
2023-03-15T09:30:31.451Z,6.37
2023-03-15T09:33:03.383Z,6.30
2023-03-15T09:35:35.378Z,6.24
2023-03-15T09:38:07.339Z,6.19
2023-03-15T09:40:45.439Z,6.28
2023-03-15T09:43:44.662Z,6.45
2023-03-15T09:46:29.205Z,6.63
2023-03-15T09:49:07.654Z,6.75
2023-03-15T09:51:48.274Z,6.85
2023-03-15T09:54:24.924Z,7.02
2023-03-15T09:57:02.601Z,7.18
2023-03-15T09:59:36.774Z,7.27
2023-03-15T10:02:23.950Z,7.35
2023-03-15T10:05:06.140Z,7.39
2023-03-15T10:07:38.892Z,7.34
2023-03-15T10:10:22.161Z,7.25
2023-03-15T10:13:01.437Z,7.27
2023-03-15T10:15:46.017Z,7.22
2023-03-15T10:18:34.614Z,7.17
2023-03-15T10:21:13.817Z,7.19
2023-03-15T10:23:52.144Z,7.32
2023-03-15T10:26:27.348Z,7.27
2023-03-15T10:28:59.409Z,7.11
2023-03-15T10:31:44.558Z,7.02
2023-03-15T10:34:18.433Z,6.82
2023-03-15T10:36:55.705Z,6.79
2023-03-15T10:39:28.560Z,6.80
2023-03-15T10:42:13.607Z,6.81
2023-03-15T10:48:25.645Z,7.08
2023-03-15T10:51:33.166Z,7.23
2023-03-15T10:54:11.576Z,7.31
2023-03-15T10:56:49.241Z,7.48
2023-03-15T10:59:24.606Z,7.65
2023-03-15T11:02:15.830Z,7.73
2023-03-15T11:04:52.648Z,7.78
2023-03-15T11:07:25.801Z,7.72
2023-03-15T11:10:06.506Z,7.82
2023-03-15T11:12:38.270Z,7.88
2023-03-15T11:15:15.533Z,7.88
2023-03-15T11:17:49.297Z,7.88
2023-03-15T11:20:32.226Z,7.86
2023-03-15T11:23:07.651Z,7.86
2023-03-15T11:25:39.448Z,7.91
2023-03-15T11:28:19.753Z,7.88
2023-03-15T11:30:52.991Z,7.88
2023-03-15T11:33:41.132Z,7.88
2023-03-15T11:36:19.433Z,7.99
2023-03-15T11:38:54.298Z,7.96
2023-03-15T11:41:35.771Z,7.81
2023-03-15T11:44:19.881Z,7.80
2023-03-15T11:46:56.048Z,7.83
2023-03-15T11:49:36.931Z,7.99
2023-03-15T11:52:09.463Z,8.03
2023-03-15T11:54:41.281Z,8.03
2023-03-15T11:57:41.192Z,7.94
2023-03-15T12:00:43.991Z,7.85
2023-03-15T12:03:34.792Z,7.95
2023-03-15T12:06:11.996Z,7.91
2023-03-15T12:08:51.019Z,7.96
2023-03-15T12:11:42.775Z,7.80
2023-03-15T12:14:35.026Z,7.80
2023-03-15T12:17:42.926Z,7.82
2023-03-15T12:20:23.378Z,7.92
2023-03-15T12:23:07.000Z,7.95
2023-03-15T12:25:54.819Z,8.01
2023-03-15T12:28:32.113Z,8.09
2023-03-15T12:31:07.291Z,8.03
2023-03-15T12:33:51.377Z,7.96
2023-03-15T12:36:37.023Z,8.02
2023-03-15T12:39:37.710Z,8.05
2023-03-15T12:42:13.842Z,7.99
2023-03-15T12:44:46.800Z,7.99
2023-03-15T12:47:18.473Z,7.98
2023-03-15T12:49:50.874Z,7.83
2023-03-15T12:52:43.322Z,7.76
2023-03-15T12:55:19.919Z,7.81
2023-03-15T12:57:54.441Z,7.74
2023-03-15T13:00:30.732Z,7.75
2023-03-15T13:03:11.441Z,7.84
2023-03-15T13:06:03.453Z,7.96
2023-03-15T13:08:43.077Z,8.05
2023-03-15T13:11:22.854Z,7.92
2023-03-15T13:14:13.584Z,7.93
2023-03-15T13:16:51.008Z,8.00
2023-03-15T13:19:27.615Z,7.98
2023-03-15T13:22:13.772Z,8.14
2023-03-15T13:24:54.574Z,8.17
2023-03-15T13:27:38.790Z,8.20
2023-03-15T13:30:29.637Z,8.13
2023-03-15T13:33:13.590Z,8.04
2023-03-15T13:35:49.833Z,8.14
2023-03-15T13:38:30.138Z,8.03
2023-03-15T13:41:04.085Z,8.02
2023-03-15T13:43:37.815Z,7.96
2023-03-15T13:46:14.454Z,7.81
2023-03-15T13:49:15.466Z,7.88
2023-03-15T13:53:18.363Z,8.01
2023-03-15T13:55:31.173Z,8.20
2023-03-15T13:58:10.976Z,8.08
2023-03-15T14:00:44.592Z,8.02
2023-03-15T14:03:24.188Z,8.10
2023-03-15T14:05:58.428Z,8.15
2023-03-15T14:08:33.426Z,8.12
2023-03-15T14:11:11.909Z,8.15
2023-03-15T14:13:53.483Z,8.12
2023-03-15T14:16:57.148Z,8.03
2023-03-15T14:19:37.125Z,7.94
2023-03-15T14:22:20.016Z,7.93
2023-03-15T14:24:53.450Z,7.88
2023-03-15T14:27:27.563Z,7.82
2023-03-15T14:30:02.120Z,7.83
2023-03-15T14:32:36.846Z,7.90
2023-03-15T14:35:08.539Z,7.81
2023-03-15T14:37:42.740Z,7.84
2023-03-15T14:40:21.846Z,7.99
2023-03-15T14:42:54.434Z,7.92
2023-03-15T14:45:27.873Z,7.85
2023-03-15T14:48:04.486Z,7.84
2023-03-15T14:50:40.562Z,7.86
2023-03-15T14:53:21.977Z,7.90
2023-03-15T14:55:53.798Z,7.91
2023-03-15T14:58:26.850Z,7.97
2023-03-15T15:01:00.264Z,8.04
2023-03-15T15:03:38.754Z,8.05
2023-03-15T15:06:14.009Z,8.00
2023-03-15T15:08:47.847Z,7.96
2023-03-15T15:11:19.978Z,7.85
2023-03-15T15:13:51.484Z,7.74
2023-03-15T15:16:23.425Z,7.73
2023-03-15T15:18:56.337Z,7.70
2023-03-15T15:21:33.933Z,7.62
2023-03-15T15:24:15.037Z,7.58
2023-03-15T15:26:47.223Z,7.60
2023-03-15T15:29:19.905Z,7.63
2023-03-15T15:31:52.244Z,7.70
2023-03-15T15:34:24.313Z,7.69
2023-03-15T15:36:56.124Z,7.59
2023-03-15T15:39:29.882Z,7.58
2023-03-15T15:42:06.084Z,7.53
2023-03-15T15:44:38.451Z,7.42
2023-03-15T15:47:11.464Z,7.39
2023-03-15T15:49:43.112Z,7.31
2023-03-15T15:52:16.101Z,7.13
2023-03-15T15:54:48.230Z,7.19
2023-03-15T15:57:27.092Z,7.13
2023-03-15T15:59:58.482Z,7.02
2023-03-15T16:02:31.073Z,6.88
2023-03-15T16:05:03.958Z,6.79
2023-03-15T16:07:36.975Z,6.77
2023-03-15T16:10:19.790Z,6.76
2023-03-15T16:12:55.814Z,6.70
2023-03-15T16:15:27.710Z,6.73
2023-03-15T16:18:02.192Z,6.68
2023-03-15T16:20:35.052Z,6.58
2023-03-15T16:23:07.082Z,6.56
2023-03-15T16:25:43.533Z,6.55
2023-03-15T16:28:16.609Z,6.52
2023-03-15T16:30:50.546Z,6.60
2023-03-15T16:33:29.647Z,6.53
2023-03-15T16:36:03.891Z,6.43
2023-03-15T16:38:37.554Z,6.37
2023-03-15T16:41:14.716Z,6.37
2023-03-15T16:43:49.557Z,6.39
2023-03-15T16:46:22.645Z,6.46
2023-03-15T16:48:55.959Z,6.46
2023-03-15T16:51:34.248Z,6.36
2023-03-15T16:54:19.638Z,6.32
2023-03-15T16:56:58.173Z,6.39
2023-03-15T16:59:33.351Z,6.42
2023-03-15T17:02:10.576Z,6.40
2023-03-15T17:04:43.940Z,6.28
2023-03-15T17:07:17.979Z,6.21
2023-03-15T17:09:53.139Z,6.14
2023-03-15T17:12:27.542Z,6.04
2023-03-15T17:15:03.404Z,5.99
2023-03-15T17:17:38.934Z,5.92
2023-03-15T17:20:14.995Z,5.88
2023-03-15T17:22:47.273Z,5.88
2023-03-15T17:25:23.441Z,5.86
2023-03-15T17:28:07.708Z,5.72
2023-03-15T17:30:45.509Z,5.75
2023-03-15T17:33:19.307Z,5.83
2023-03-15T17:35:59.045Z,5.81
2023-03-15T17:38:36.495Z,5.72
2023-03-15T17:41:30.769Z,5.61
2023-03-15T17:44:08.810Z,5.59
2023-03-15T17:46:43.986Z,5.64
2023-03-15T17:49:27.541Z,5.56
2023-03-15T17:52:01.999Z,5.60
2023-03-15T17:54:37.401Z,5.61
2023-03-15T17:57:13.577Z,5.56
2023-03-15T17:59:48.339Z,5.50
2023-03-15T18:02:22.881Z,5.44
2023-03-15T18:05:00.146Z,5.39
2023-03-15T18:07:56.091Z,5.41
2023-03-15T18:10:36.914Z,5.39
2023-03-15T18:13:12.347Z,5.41
2023-03-15T18:15:47.334Z,5.32
2023-03-15T18:18:22.611Z,5.26
2023-03-15T18:21:01.067Z,5.20
2023-03-15T18:23:40.882Z,5.17
2023-03-15T18:26:16.969Z,5.09
2023-03-15T18:28:52.759Z,4.98
2023-03-15T18:31:28.645Z,4.90
2023-03-15T18:34:04.366Z,4.87
2023-03-15T18:36:43.836Z,4.81
2023-03-15T18:39:18.816Z,4.78
2023-03-15T18:41:53.558Z,4.79
2023-03-15T18:44:30.016Z,4.75
2023-03-15T18:47:06.705Z,4.71
2023-03-15T18:49:44.597Z,4.68
2023-03-15T18:52:20.380Z,4.56
2023-03-15T18:54:54.183Z,4.68
2023-03-15T18:57:31.207Z,4.60
2023-03-15T19:00:14.257Z,4.47
2023-03-15T19:02:50.504Z,4.41
2023-03-15T19:05:25.678Z,4.33
2023-03-15T19:08:00.699Z,4.29
2023-03-15T19:10:35.161Z,4.32
2023-03-15T19:13:12.316Z,4.22
2023-03-15T19:15:47.971Z,4.10
2023-03-15T19:18:22.973Z,4.16
2023-03-15T19:20:59.308Z,4.23
2023-03-15T19:23:35.644Z,4.23
2023-03-15T19:26:13.380Z,4.20
2023-03-15T19:28:49.157Z,4.07
2023-03-15T19:31:22.920Z,3.94
2023-03-15T19:34:00.118Z,3.90
2023-03-15T19:36:40.950Z,3.86
2023-03-15T19:39:17.706Z,3.91
2023-03-15T19:41:52.581Z,3.82
2023-03-15T19:44:24.908Z,3.90
2023-03-15T19:46:58.867Z,3.81
2023-03-15T19:49:35.635Z,3.72
2023-03-15T19:52:10.553Z,3.74
2023-03-15T19:54:49.036Z,3.67
2023-03-15T19:57:31.568Z,3.62
2023-03-15T20:00:20.290Z,3.78
2023-03-15T20:02:56.606Z,3.75
2023-03-15T20:05:45.176Z,3.75
2023-03-15T20:08:21.960Z,3.88
2023-03-15T20:15:30.877Z,3.84
2023-03-15T20:18:21.176Z,4.05
2023-03-15T20:21:26.978Z,3.99
2023-03-15T20:24:37.816Z,3.95
2023-03-15T20:27:36.604Z,4.00
2023-03-15T20:37:13.462Z,3.83
2023-03-15T20:39:54.124Z,3.87
2023-03-15T20:42:54.087Z,3.70
2023-03-15T20:45:37.889Z,3.64
2023-03-15T20:48:17.186Z,3.60
2023-03-15T20:51:03.314Z,3.56
2023-03-15T20:53:42.381Z,3.60
2023-03-15T20:56:20.724Z,3.49
2023-03-15T20:59:05.029Z,3.47
2023-03-15T21:01:40.944Z,3.46
2023-03-15T21:04:24.689Z,3.39
2023-03-15T21:07:05.099Z,3.28
2023-03-15T21:09:39.522Z,3.24
2023-03-15T21:12:11.592Z,3.20
2023-03-15T21:14:48.998Z,3.10
2023-03-15T21:17:22.687Z,2.98
2023-03-15T21:20:03.113Z,3.01
2023-03-15T21:22:36.754Z,3.03
2023-03-15T21:25:18.151Z,3.10
2023-03-15T21:28:04.933Z,3.09
2023-03-15T21:30:41.044Z,3.07
2023-03-15T21:33:16.368Z,3.06
2023-03-15T21:35:50.100Z,3.06
2023-03-15T21:38:26.651Z,3.01
2023-03-15T21:41:01.109Z,2.99
2023-03-15T21:43:38.864Z,3.02
2023-03-15T21:46:19.544Z,3.04
2023-03-15T21:48:53.678Z,3.03
2023-03-15T21:51:30.905Z,3.07
2023-03-15T21:54:03.334Z,2.96
2023-03-15T21:56:38.712Z,2.96
2023-03-15T21:59:13.243Z,2.89
2023-03-15T22:01:45.688Z,2.79
2023-03-15T22:04:18.028Z,2.67
2023-03-15T22:06:50.151Z,2.68
2023-03-15T22:09:21.913Z,2.75
2023-03-15T22:11:53.888Z,2.68
2023-03-15T22:14:26.087Z,2.69
2023-03-15T22:16:57.770Z,2.75
2023-03-15T22:19:29.441Z,2.69
2023-03-15T22:22:01.272Z,2.60
2023-03-15T22:24:34.329Z,2.49
2023-03-15T22:27:05.974Z,2.40
2023-03-15T22:29:39.421Z,2.32
2023-03-15T22:32:11.877Z,2.27
2023-03-15T22:34:47.076Z,2.16
2023-03-15T22:37:18.646Z,2.03
2023-03-15T22:39:50.145Z,2.04
2023-03-15T22:42:21.631Z,2.06
2023-03-15T22:44:53.383Z,2.05
2023-03-15T22:47:24.926Z,1.97
2023-03-15T22:49:56.508Z,1.95
2023-03-15T22:52:28.084Z,1.85
2023-03-15T22:54:59.564Z,1.86
2023-03-15T22:57:32.041Z,1.84
2023-03-15T23:00:04.835Z,1.87
2023-03-15T23:02:36.614Z,1.86
2023-03-15T23:05:09.592Z,1.82
2023-03-15T23:07:41.707Z,1.74
2023-03-15T23:10:14.597Z,1.67
2023-03-15T23:12:46.325Z,1.64
2023-03-15T23:15:18.623Z,1.62
2023-03-15T23:17:51.337Z,1.64
2023-03-15T23:20:25.503Z,1.61
2023-03-15T23:22:57.287Z,1.53
2023-03-15T23:25:30.608Z,1.53
2023-03-15T23:28:02.183Z,1.59
2023-03-15T23:30:35.741Z,1.72
2023-03-15T23:33:08.854Z,1.72
2023-03-15T23:35:42.354Z,1.69
2023-03-15T23:38:14.303Z,1.68
2023-03-15T23:40:45.824Z,1.75
2023-03-15T23:43:17.335Z,1.68
2023-03-15T23:45:48.996Z,1.61
2023-03-15T23:48:20.739Z,1.64
2023-03-15T23:50:55.535Z,1.74
2023-03-15T23:53:25.751Z,1.67
2023-03-15T23:55:57.633Z,1.59
2023-03-15T23:58:29.266Z,1.58
